sensor_id;sensor_type;location;lat;lon;timestamp;P1;durP1;ratioP1;P2;durP2;ratioP2
45540;SDS011;31265;49.680;8.608;2022-07-12T00:02:29;0.88;;;0.38;;
45540;SDS011;31265;49.680;8.608;2022-07-12T00:04:57;1.20;;;0.32;;
45540;SDS011;31265;49.680;8.608;2022-07-12T00:07:25;0.77;;;0.30;;
45540;SDS011;31265;49.680;8.608;2022-07-12T00:09:53;0.60;;;0.30;;
45540;SDS011;31265;49.680;8.608;2022-07-12T00:12:21;0.77;;;0.35;;
45540;SDS011;31265;49.680;8.608;2022-07-12T00:14:49;0.63;;;0.30;;
45540;SDS011;31265;49.680;8.608;2022-07-12T00:17:18;0.68;;;0.28;;
45540;SDS011;31265;49.680;8.608;2022-07-12T00:19:47;0.52;;;0.22;;
45540;SDS011;31265;49.680;8.608;2022-07-12T00:22:15;0.50;;;0.30;;
45540;SDS011;31265;49.680;8.608;2022-07-12T00:24:43;0.22;;;0.13;;
45540;SDS011;31265;49.680;8.608;2022-07-12T00:27:11;0.93;;;0.35;;
45540;SDS011;31265;49.680;8.608;2022-07-12T00:29:40;2.25;;;0.50;;
45540;SDS011;31265;49.680;8.608;2022-07-12T00:32:08;0.88;;;0.40;;
45540;SDS011;31265;49.680;8.608;2022-07-12T00:34:36;0.25;;;0.20;;
45540;SDS011;31265;49.680;8.608;2022-07-12T00:37:05;0.73;;;0.30;;
45540;SDS011;31265;49.680;8.608;2022-07-12T00:39:33;2.75;;;0.65;;
45540;SDS011;31265;49.680;8.608;2022-07-12T00:42:02;0.98;;;0.28;;
45540;SDS011;31265;49.680;8.608;2022-07-12T00:44:30;0.98;;;0.38;;
45540;SDS011;31265;49.680;8.608;2022-07-12T00:49:29;1.37;;;0.43;;
45540;SDS011;31265;49.680;8.608;2022-07-12T00:51:58;0.73;;;0.40;;
45540;SDS011;31265;49.680;8.608;2022-07-12T00:54:27;0.93;;;0.40;;
45540;SDS011;31265;49.680;8.608;2022-07-12T00:56:55;5.47;;;0.40;;
45540;SDS011;31265;49.680;8.608;2022-07-12T00:59:23;0.93;;;0.32;;
45540;SDS011;31265;49.680;8.608;2022-07-12T01:01:51;1.10;;;0.40;;
45540;SDS011;31265;49.680;8.608;2022-07-12T01:04:19;0.77;;;0.32;;
45540;SDS011;31265;49.680;8.608;2022-07-12T01:06:47;0.60;;;0.20;;
45540;SDS011;31265;49.680;8.608;2022-07-12T01:09:16;0.50;;;0.30;;
45540;SDS011;31265;49.680;8.608;2022-07-12T01:11:46;1.38;;;0.45;;
45540;SDS011;31265;49.680;8.608;2022-07-12T01:14:15;0.68;;;0.28;;
45540;SDS011;31265;49.680;8.608;2022-07-12T01:16:43;0.82;;;0.32;;
45540;SDS011;31265;49.680;8.608;2022-07-12T01:19:12;1.25;;;0.32;;
45540;SDS011;31265;49.680;8.608;2022-07-12T01:21:47;0.80;;;0.40;;
45540;SDS011;31265;49.680;8.608;2022-07-12T01:24:17;0.38;;;0.20;;
45540;SDS011;31265;49.680;8.608;2022-07-12T01:26:46;1.42;;;0.60;;
45540;SDS011;31265;49.680;8.608;2022-07-12T01:29:15;0.55;;;0.25;;
45540;SDS011;31265;49.680;8.608;2022-07-12T01:31:43;2.10;;;0.60;;
45540;SDS011;31265;49.680;8.608;2022-07-12T01:34:12;1.23;;;0.50;;
45540;SDS011;31265;49.680;8.608;2022-07-12T01:36:40;1.17;;;0.52;;
45540;SDS011;31265;49.680;8.608;2022-07-12T01:39:09;0.95;;;0.40;;
45540;SDS011;31265;49.680;8.608;2022-07-12T01:41:39;1.98;;;0.57;;
45540;SDS011;31265;49.680;8.608;2022-07-12T01:46:36;0.73;;;0.43;;
45540;SDS011;31265;49.680;8.608;2022-07-12T01:49:05;0.88;;;0.47;;
45540;SDS011;31265;49.680;8.608;2022-07-12T01:51:33;1.10;;;0.32;;
45540;SDS011;31265;49.680;8.608;2022-07-12T01:54:01;1.63;;;0.70;;
45540;SDS011;31265;49.680;8.608;2022-07-12T01:56:29;1.27;;;0.40;;
45540;SDS011;31265;49.680;8.608;2022-07-12T01:58:58;1.58;;;0.70;;
45540;SDS011;31265;49.680;8.608;2022-07-12T02:01:27;0.95;;;0.43;;
45540;SDS011;31265;49.680;8.608;2022-07-12T02:03:56;0.38;;;0.20;;
45540;SDS011;31265;49.680;8.608;2022-07-12T02:06:24;1.05;;;0.60;;
45540;SDS011;31265;49.680;8.608;2022-07-12T02:08:53;0.93;;;0.47;;
45540;SDS011;31265;49.680;8.608;2022-07-12T02:11:21;1.02;;;0.40;;
45540;SDS011;31265;49.680;8.608;2022-07-12T02:13:49;1.00;;;0.52;;
45540;SDS011;31265;49.680;8.608;2022-07-12T02:16:18;0.70;;;0.50;;
45540;SDS011;31265;49.680;8.608;2022-07-12T02:18:46;0.82;;;0.50;;
45540;SDS011;31265;49.680;8.608;2022-07-12T02:21:14;0.82;;;0.40;;
45540;SDS011;31265;49.680;8.608;2022-07-12T02:23:42;1.35;;;0.40;;
45540;SDS011;31265;49.680;8.608;2022-07-12T02:26:10;1.13;;;0.45;;
45540;SDS011;31265;49.680;8.608;2022-07-12T02:28:38;1.58;;;0.77;;
45540;SDS011;31265;49.680;8.608;2022-07-12T02:31:07;1.30;;;0.70;;
45540;SDS011;31265;49.680;8.608;2022-07-12T02:33:36;1.33;;;0.52;;
45540;SDS011;31265;49.680;8.608;2022-07-12T02:36:05;1.70;;;0.80;;
45540;SDS011;31265;49.680;8.608;2022-07-12T02:38:34;1.83;;;0.68;;
45540;SDS011;31265;49.680;8.608;2022-07-12T02:41:02;1.00;;;0.60;;
45540;SDS011;31265;49.680;8.608;2022-07-12T02:43:30;0.50;;;0.32;;
45540;SDS011;31265;49.680;8.608;2022-07-12T02:46:02;0.88;;;0.47;;
45540;SDS011;31265;49.680;8.608;2022-07-12T02:48:31;1.42;;;0.70;;
45540;SDS011;31265;49.680;8.608;2022-07-12T02:51:01;1.25;;;0.55;;
45540;SDS011;31265;49.680;8.608;2022-07-12T02:53:30;2.95;;;1.15;;
45540;SDS011;31265;49.680;8.608;2022-07-12T02:56:07;1.13;;;0.63;;
45540;SDS011;31265;49.680;8.608;2022-07-12T02:58:37;1.25;;;0.77;;
45540;SDS011;31265;49.680;8.608;2022-07-12T03:01:05;2.17;;;0.63;;
45540;SDS011;31265;49.680;8.608;2022-07-12T03:03:33;2.05;;;0.60;;
45540;SDS011;31265;49.680;8.608;2022-07-12T03:06:03;1.00;;;0.50;;
45540;SDS011;31265;49.680;8.608;2022-07-12T03:10:59;1.42;;;0.75;;
45540;SDS011;31265;49.680;8.608;2022-07-12T03:13:27;1.63;;;0.60;;
45540;SDS011;31265;49.680;8.608;2022-07-12T03:15:55;1.27;;;0.50;;
45540;SDS011;31265;49.680;8.608;2022-07-12T03:18:23;1.50;;;0.82;;
45540;SDS011;31265;49.680;8.608;2022-07-12T03:20:51;1.65;;;0.73;;
45540;SDS011;31265;49.680;8.608;2022-07-12T03:23:21;0.88;;;0.45;;
45540;SDS011;31265;49.680;8.608;2022-07-12T03:25:49;1.33;;;0.50;;
45540;SDS011;31265;49.680;8.608;2022-07-12T03:28:17;1.55;;;0.90;;
45540;SDS011;31265;49.680;8.608;2022-07-12T03:30:45;1.95;;;0.80;;
45540;SDS011;31265;49.680;8.608;2022-07-12T03:33:13;1.20;;;0.70;;
45540;SDS011;31265;49.680;8.608;2022-07-12T03:35:41;0.80;;;0.43;;
45540;SDS011;31265;49.680;8.608;2022-07-12T03:38:09;1.77;;;0.70;;
45540;SDS011;31265;49.680;8.608;2022-07-12T03:40:39;1.27;;;0.60;;
45540;SDS011;31265;49.680;8.608;2022-07-12T03:43:07;1.77;;;0.90;;
45540;SDS011;31265;49.680;8.608;2022-07-12T03:45:35;0.82;;;0.50;;
45540;SDS011;31265;49.680;8.608;2022-07-12T03:48:03;1.02;;;0.38;;
45540;SDS011;31265;49.680;8.608;2022-07-12T03:50:32;1.10;;;0.53;;
45540;SDS011;31265;49.680;8.608;2022-07-12T03:52:59;1.55;;;0.70;;
45540;SDS011;31265;49.680;8.608;2022-07-12T03:55:28;0.85;;;0.40;;
45540;SDS011;31265;49.680;8.608;2022-07-12T03:57:57;0.93;;;0.50;;
45540;SDS011;31265;49.680;8.608;2022-07-12T04:00:25;0.65;;;0.30;;
45540;SDS011;31265;49.680;8.608;2022-07-12T04:02:53;0.70;;;0.30;;
45540;SDS011;31265;49.680;8.608;2022-07-12T04:05:22;0.40;;;0.20;;
45540;SDS011;31265;49.680;8.608;2022-07-12T04:07:53;1.42;;;0.60;;
45540;SDS011;31265;49.680;8.608;2022-07-12T04:10:21;1.63;;;0.68;;
45540;SDS011;31265;49.680;8.608;2022-07-12T04:12:49;1.48;;;0.57;;
45540;SDS011;31265;49.680;8.608;2022-07-12T04:15:19;2.35;;;0.57;;
45540;SDS011;31265;49.680;8.608;2022-07-12T04:20:15;1.35;;;0.50;;
45540;SDS011;31265;49.680;8.608;2022-07-12T04:22:43;2.30;;;0.88;;
45540;SDS011;31265;49.680;8.608;2022-07-12T04:25:12;1.75;;;0.77;;
45540;SDS011;31265;49.680;8.608;2022-07-12T04:27:40;1.48;;;0.82;;
45540;SDS011;31265;49.680;8.608;2022-07-12T04:30:08;1.80;;;0.80;;
45540;SDS011;31265;49.680;8.608;2022-07-12T04:32:38;2.05;;;0.98;;
45540;SDS011;31265;49.680;8.608;2022-07-12T04:35:06;1.45;;;0.57;;
45540;SDS011;31265;49.680;8.608;2022-07-12T04:37:35;1.02;;;0.40;;
45540;SDS011;31265;49.680;8.608;2022-07-12T04:40:03;1.48;;;0.98;;
45540;SDS011;31265;49.680;8.608;2022-07-12T04:42:32;1.08;;;0.50;;
45540;SDS011;31265;49.680;8.608;2022-07-12T04:45:00;1.73;;;0.82;;
45540;SDS011;31265;49.680;8.608;2022-07-12T04:47:28;1.60;;;0.77;;
45540;SDS011;31265;49.680;8.608;2022-07-12T04:49:57;2.55;;;0.75;;
45540;SDS011;31265;49.680;8.608;2022-07-12T04:52:25;1.45;;;0.68;;
45540;SDS011;31265;49.680;8.608;2022-07-12T04:54:54;2.10;;;1.08;;
45540;SDS011;31265;49.680;8.608;2022-07-12T04:57:22;2.25;;;1.02;;
45540;SDS011;31265;49.680;8.608;2022-07-12T04:59:50;1.48;;;0.80;;
45540;SDS011;31265;49.680;8.608;2022-07-12T05:02:18;0.80;;;0.47;;
45540;SDS011;31265;49.680;8.608;2022-07-12T05:04:46;1.88;;;0.73;;
45540;SDS011;31265;49.680;8.608;2022-07-12T05:07:15;1.70;;;1.00;;
45540;SDS011;31265;49.680;8.608;2022-07-12T05:09:43;1.20;;;0.70;;
45540;SDS011;31265;49.680;8.608;2022-07-12T05:12:11;1.42;;;0.75;;
45540;SDS011;31265;49.680;8.608;2022-07-12T05:14:39;6.03;;;1.58;;
45540;SDS011;31265;49.680;8.608;2022-07-12T05:17:07;2.30;;;0.90;;
45540;SDS011;31265;49.680;8.608;2022-07-12T05:19:36;2.30;;;1.10;;
45540;SDS011;31265;49.680;8.608;2022-07-12T05:22:04;2.77;;;1.30;;
45540;SDS011;31265;49.680;8.608;2022-07-12T05:24:34;2.17;;;1.33;;
45540;SDS011;31265;49.680;8.608;2022-07-12T05:27:03;2.80;;;1.13;;
45540;SDS011;31265;49.680;8.608;2022-07-12T05:29:31;2.78;;;1.38;;
45540;SDS011;31265;49.680;8.608;2022-07-12T05:31:59;3.53;;;1.20;;
45540;SDS011;31265;49.680;8.608;2022-07-12T05:34:36;1.85;;;0.95;;
45540;SDS011;31265;49.680;8.608;2022-07-12T05:37:04;2.00;;;1.37;;
45540;SDS011;31265;49.680;8.608;2022-07-12T05:39:32;3.47;;;1.35;;
45540;SDS011;31265;49.680;8.608;2022-07-12T05:42:02;3.63;;;1.52;;
45540;SDS011;31265;49.680;8.608;2022-07-12T05:44:30;2.42;;;1.23;;
45540;SDS011;31265;49.680;8.608;2022-07-12T05:46:58;2.67;;;1.15;;
45540;SDS011;31265;49.680;8.608;2022-07-12T05:49:26;4.32;;;1.30;;
45540;SDS011;31265;49.680;8.608;2022-07-12T05:51:55;2.53;;;1.10;;
45540;SDS011;31265;49.680;8.608;2022-07-12T05:54:41;2.80;;;1.48;;
45540;SDS011;31265;49.680;8.608;2022-07-12T05:57:10;2.50;;;1.20;;
45540;SDS011;31265;49.680;8.608;2022-07-12T05:59:38;2.55;;;1.08;;
45540;SDS011;31265;49.680;8.608;2022-07-12T06:02:06;2.75;;;1.27;;
45540;SDS011;31265;49.680;8.608;2022-07-12T06:04:34;1.70;;;0.75;;
45540;SDS011;31265;49.680;8.608;2022-07-12T06:07:03;3.88;;;1.30;;
45540;SDS011;31265;49.680;8.608;2022-07-12T06:09:31;2.22;;;0.90;;
45540;SDS011;31265;49.680;8.608;2022-07-12T06:11:59;1.85;;;0.85;;
45540;SDS011;31265;49.680;8.608;2022-07-12T06:14:29;1.90;;;0.88;;
45540;SDS011;31265;49.680;8.608;2022-07-12T06:16:57;1.92;;;0.93;;
45540;SDS011;31265;49.680;8.608;2022-07-12T06:19:25;1.88;;;0.60;;
45540;SDS011;31265;49.680;8.608;2022-07-12T06:21:53;2.20;;;0.77;;
45540;SDS011;31265;49.680;8.608;2022-07-12T06:24:21;1.30;;;0.50;;
45540;SDS011;31265;49.680;8.608;2022-07-12T06:26:50;5.47;;;0.93;;
45540;SDS011;31265;49.680;8.608;2022-07-12T06:29:18;1.30;;;0.73;;
45540;SDS011;31265;49.680;8.608;2022-07-12T06:31:47;1.08;;;0.50;;
45540;SDS011;31265;49.680;8.608;2022-07-12T06:34:15;1.02;;;0.50;;
45540;SDS011;31265;49.680;8.608;2022-07-12T06:36:43;1.45;;;0.50;;
45540;SDS011;31265;49.680;8.608;2022-07-12T06:39:11;2.10;;;0.60;;
45540;SDS011;31265;49.680;8.608;2022-07-12T06:41:39;1.35;;;0.65;;
45540;SDS011;31265;49.680;8.608;2022-07-12T06:44:07;11.60;;;0.75;;
45540;SDS011;31265;49.680;8.608;2022-07-12T06:46:35;1.75;;;0.68;;
45540;SDS011;31265;49.680;8.608;2022-07-12T06:49:05;2.92;;;0.75;;
45540;SDS011;31265;49.680;8.608;2022-07-12T06:54:01;1.50;;;0.40;;
45540;SDS011;31265;49.680;8.608;2022-07-12T06:56:30;1.02;;;0.60;;
45540;SDS011;31265;49.680;8.608;2022-07-12T06:58:58;1.38;;;0.45;;
45540;SDS011;31265;49.680;8.608;2022-07-12T07:01:26;0.80;;;0.50;;
45540;SDS011;31265;49.680;8.608;2022-07-12T07:03:55;0.73;;;0.50;;
45540;SDS011;31265;49.680;8.608;2022-07-12T07:06:24;0.75;;;0.47;;
45540;SDS011;31265;49.680;8.608;2022-07-12T07:08:52;1.55;;;0.73;;
45540;SDS011;31265;49.680;8.608;2022-07-12T07:11:21;1.13;;;0.50;;
45540;SDS011;31265;49.680;8.608;2022-07-12T07:13:49;0.57;;;0.30;;
45540;SDS011;31265;49.680;8.608;2022-07-12T07:16:18;1.05;;;0.40;;
45540;SDS011;31265;49.680;8.608;2022-07-12T07:18:49;1.33;;;0.50;;
45540;SDS011;31265;49.680;8.608;2022-07-12T07:21:17;1.77;;;0.93;;
45540;SDS011;31265;49.680;8.608;2022-07-12T07:23:46;1.23;;;0.30;;
45540;SDS011;31265;49.680;8.608;2022-07-12T07:26:15;1.20;;;0.40;;
45540;SDS011;31265;49.680;8.608;2022-07-12T07:28:43;0.88;;;0.50;;
45540;SDS011;31265;49.680;8.608;2022-07-12T07:31:33;1.58;;;0.30;;
45540;SDS011;31265;49.680;8.608;2022-07-12T07:34:01;2.53;;;0.47;;
45540;SDS011;31265;49.680;8.608;2022-07-12T07:36:29;0.85;;;0.40;;
45540;SDS011;31265;49.680;8.608;2022-07-12T07:38:59;0.20;;;0.10;;
45540;SDS011;31265;49.680;8.608;2022-07-12T07:41:28;3.25;;;0.28;;
45540;SDS011;31265;49.680;8.608;2022-07-12T07:43:56;0.45;;;0.15;;
45540;SDS011;31265;49.680;8.608;2022-07-12T07:46:24;1.38;;;0.60;;
45540;SDS011;31265;49.680;8.608;2022-07-12T07:48:52;0.50;;;0.30;;
45540;SDS011;31265;49.680;8.608;2022-07-12T07:51:20;0.25;;;0.17;;
45540;SDS011;31265;49.680;8.608;2022-07-12T07:53:48;0.75;;;0.25;;
45540;SDS011;31265;49.680;8.608;2022-07-12T07:56:18;0.55;;;0.13;;
45540;SDS011;31265;49.680;8.608;2022-07-12T08:01:14;2.35;;;0.30;;
45540;SDS011;31265;49.680;8.608;2022-07-12T08:03:42;0.28;;;0.10;;
45540;SDS011;31265;49.680;8.608;2022-07-12T08:06:10;0.63;;;0.30;;
45540;SDS011;31265;49.680;8.608;2022-07-12T08:08:38;1.20;;;0.30;;
45540;SDS011;31265;49.680;8.608;2022-07-12T08:11:28;0.52;;;0.30;;
45540;SDS011;31265;49.680;8.608;2022-07-12T08:16:24;0.25;;;0.13;;
45540;SDS011;31265;49.680;8.608;2022-07-12T08:18:52;0.53;;;0.20;;
45540;SDS011;31265;49.680;8.608;2022-07-12T08:21:22;0.30;;;0.20;;
45540;SDS011;31265;49.680;8.608;2022-07-12T08:23:50;0.38;;;0.28;;
45540;SDS011;31265;49.680;8.608;2022-07-12T08:26:18;0.98;;;0.20;;
45540;SDS011;31265;49.680;8.608;2022-07-12T08:28:48;0.33;;;0.20;;
45540;SDS011;31265;49.680;8.608;2022-07-12T08:31:17;0.30;;;0.20;;
45540;SDS011;31265;49.680;8.608;2022-07-12T08:36:13;0.08;;;0.00;;
45540;SDS011;31265;49.680;8.608;2022-07-12T08:38:41;0.60;;;0.20;;
45540;SDS011;31265;49.680;8.608;2022-07-12T08:43:39;0.30;;;0.10;;
45540;SDS011;31265;49.680;8.608;2022-07-12T08:46:10;0.43;;;0.20;;
45540;SDS011;31265;49.680;8.608;2022-07-12T08:48:39;0.75;;;0.17;;
45540;SDS011;31265;49.680;8.608;2022-07-12T08:51:09;2.55;;;0.20;;
45540;SDS011;31265;49.680;8.608;2022-07-12T08:53:38;0.30;;;0.20;;
45540;SDS011;31265;49.680;8.608;2022-07-12T08:56:07;0.30;;;0.10;;
45540;SDS011;31265;49.680;8.608;2022-07-12T08:59:13;0.10;;;0.00;;
45540;SDS011;31265;49.680;8.608;2022-07-12T09:01:44;0.10;;;0.00;;
45540;SDS011;31265;49.680;8.608;2022-07-12T09:04:15;0.30;;;0.10;;
45540;SDS011;31265;49.680;8.608;2022-07-12T09:06:44;0.43;;;0.10;;
45540;SDS011;31265;49.680;8.608;2022-07-12T09:09:24;0.13;;;0.00;;
45540;SDS011;31265;49.680;8.608;2022-07-12T09:11:54;0.25;;;0.10;;
45540;SDS011;31265;49.680;8.608;2022-07-12T09:14:23;0.90;;;0.10;;
45540;SDS011;31265;49.680;8.608;2022-07-12T09:17:02;0.17;;;0.08;;
45540;SDS011;31265;49.680;8.608;2022-07-12T09:19:36;0.00;;;0.00;;
45540;SDS011;31265;49.680;8.608;2022-07-12T09:22:06;0.28;;;0.10;;
45540;SDS011;31265;49.680;8.608;2022-07-12T09:24:43;0.43;;;0.10;;
45540;SDS011;31265;49.680;8.608;2022-07-12T09:27:11;0.03;;;0.00;;
45540;SDS011;31265;49.680;8.608;2022-07-12T09:29:46;0.15;;;0.15;;
45540;SDS011;31265;49.680;8.608;2022-07-12T09:32:20;0.30;;;0.20;;
45540;SDS011;31265;49.680;8.608;2022-07-12T09:35:05;0.00;;;0.00;;
45540;SDS011;31265;49.680;8.608;2022-07-12T09:37:51;0.10;;;0.10;;
45540;SDS011;31265;49.680;8.608;2022-07-12T09:40:20;0.38;;;0.10;;
45540;SDS011;31265;49.680;8.608;2022-07-12T09:42:48;0.52;;;0.10;;
45540;SDS011;31265;49.680;8.608;2022-07-12T09:47:47;0.40;;;0.08;;
45540;SDS011;31265;49.680;8.608;2022-07-12T09:50:16;0.10;;;0.10;;
45540;SDS011;31265;49.680;8.608;2022-07-12T09:52:45;0.00;;;0.00;;
45540;SDS011;31265;49.680;8.608;2022-07-12T09:55:16;0.10;;;0.00;;
45540;SDS011;31265;49.680;8.608;2022-07-12T09:57:45;0.10;;;0.10;;
45540;SDS011;31265;49.680;8.608;2022-07-12T10:00:14;0.25;;;0.10;;
45540;SDS011;31265;49.680;8.608;2022-07-12T10:02:43;0.10;;;0.00;;
45540;SDS011;31265;49.680;8.608;2022-07-12T10:05:13;0.28;;;0.10;;
45540;SDS011;31265;49.680;8.608;2022-07-12T10:07:42;0.10;;;0.10;;
45540;SDS011;31265;49.680;8.608;2022-07-12T10:10:11;0.32;;;0.10;;
45540;SDS011;31265;49.680;8.608;2022-07-12T10:12:40;0.05;;;0.00;;
45540;SDS011;31265;49.680;8.608;2022-07-12T10:15:09;0.52;;;0.10;;
45540;SDS011;31265;49.680;8.608;2022-07-12T10:17:41;0.75;;;0.20;;
45540;SDS011;31265;49.680;8.608;2022-07-12T10:20:22;0.68;;;0.10;;
45540;SDS011;31265;49.680;8.608;2022-07-12T10:22:51;0.88;;;0.10;;
45540;SDS011;31265;49.680;8.608;2022-07-12T10:25:30;0.20;;;0.10;;
45540;SDS011;31265;49.680;8.608;2022-07-12T10:27:59;0.50;;;0.20;;
45540;SDS011;31265;49.680;8.608;2022-07-12T10:30:28;0.50;;;0.20;;
45540;SDS011;31265;49.680;8.608;2022-07-12T10:35:27;0.28;;;0.10;;
45540;SDS011;31265;49.680;8.608;2022-07-12T10:38:15;0.28;;;0.10;;
45540;SDS011;31265;49.680;8.608;2022-07-12T10:40:48;0.20;;;0.00;;
45540;SDS011;31265;49.680;8.608;2022-07-12T10:46:13;0.20;;;0.10;;
45540;SDS011;31265;49.680;8.608;2022-07-12T10:48:45;0.00;;;0.00;;
45540;SDS011;31265;49.680;8.608;2022-07-12T10:51:15;0.10;;;0.08;;
45540;SDS011;31265;49.680;8.608;2022-07-12T10:53:46;0.32;;;0.10;;
45540;SDS011;31265;49.680;8.608;2022-07-12T10:56:20;0.30;;;0.10;;
45540;SDS011;31265;49.680;8.608;2022-07-12T10:58:56;0.10;;;0.10;;
45540;SDS011;31265;49.680;8.608;2022-07-12T11:01:26;0.13;;;0.10;;
45540;SDS011;31265;49.680;8.608;2022-07-12T11:04:02;0.13;;;0.10;;
45540;SDS011;31265;49.680;8.608;2022-07-12T11:06:35;0.20;;;0.10;;
45540;SDS011;31265;49.680;8.608;2022-07-12T11:09:04;0.25;;;0.10;;
45540;SDS011;31265;49.680;8.608;2022-07-12T11:11:39;0.80;;;0.15;;
45540;SDS011;31265;49.680;8.608;2022-07-12T11:14:10;0.17;;;0.10;;
45540;SDS011;31265;49.680;8.608;2022-07-12T11:16:42;0.32;;;0.10;;
45540;SDS011;31265;49.680;8.608;2022-07-12T11:19:12;0.30;;;0.10;;
45540;SDS011;31265;49.680;8.608;2022-07-12T11:21:43;0.10;;;0.00;;
45540;SDS011;31265;49.680;8.608;2022-07-12T11:24:15;0.60;;;0.30;;
45540;SDS011;31265;49.680;8.608;2022-07-12T11:26:44;0.22;;;0.10;;
45540;SDS011;31265;49.680;8.608;2022-07-12T11:29:13;0.10;;;0.10;;
45540;SDS011;31265;49.680;8.608;2022-07-12T11:31:41;0.08;;;0.08;;
45540;SDS011;31265;49.680;8.608;2022-07-12T11:34:18;0.00;;;0.00;;
45540;SDS011;31265;49.680;8.608;2022-07-12T11:36:49;0.13;;;0.10;;
45540;SDS011;31265;49.680;8.608;2022-07-12T11:39:29;0.17;;;0.10;;
45540;SDS011;31265;49.680;8.608;2022-07-12T11:41:58;1.30;;;0.65;;
45540;SDS011;31265;49.680;8.608;2022-07-12T11:44:42;0.30;;;0.13;;
45540;SDS011;31265;49.680;8.608;2022-07-12T11:47:11;0.25;;;0.10;;
45540;SDS011;31265;49.680;8.608;2022-07-12T11:49:41;0.25;;;0.10;;
45540;SDS011;31265;49.680;8.608;2022-07-12T11:52:13;0.60;;;0.20;;
45540;SDS011;31265;49.680;8.608;2022-07-12T11:54:41;0.13;;;0.00;;
45540;SDS011;31265;49.680;8.608;2022-07-12T11:57:10;0.63;;;0.20;;
45540;SDS011;31265;49.680;8.608;2022-07-12T11:59:39;0.40;;;0.20;;
45540;SDS011;31265;49.680;8.608;2022-07-12T12:02:08;0.10;;;0.10;;
45540;SDS011;31265;49.680;8.608;2022-07-12T12:04:45;0.35;;;0.20;;
45540;SDS011;31265;49.680;8.608;2022-07-12T12:07:16;0.90;;;0.20;;
45540;SDS011;31265;49.680;8.608;2022-07-12T12:09:57;0.20;;;0.20;;
45540;SDS011;31265;49.680;8.608;2022-07-12T12:12:26;0.68;;;0.20;;
45540;SDS011;31265;49.680;8.608;2022-07-12T12:14:54;0.30;;;0.15;;
45540;SDS011;31265;49.680;8.608;2022-07-12T12:17:22;0.23;;;0.10;;
45540;SDS011;31265;49.680;8.608;2022-07-12T12:19:51;0.00;;;0.00;;
45540;SDS011;31265;49.680;8.608;2022-07-12T12:22:30;0.37;;;0.17;;
45540;SDS011;31265;49.680;8.608;2022-07-12T12:25:02;1.08;;;0.30;;
45540;SDS011;31265;49.680;8.608;2022-07-12T12:27:32;0.32;;;0.15;;
45540;SDS011;31265;49.680;8.608;2022-07-12T12:32:49;0.57;;;0.23;;
45540;SDS011;31265;49.680;8.608;2022-07-12T12:35:20;0.05;;;0.00;;
45540;SDS011;31265;49.680;8.608;2022-07-12T12:37:52;0.28;;;0.10;;
45540;SDS011;31265;49.680;8.608;2022-07-12T12:40:22;0.20;;;0.10;;
45540;SDS011;31265;49.680;8.608;2022-07-12T12:42:51;0.35;;;0.20;;
45540;SDS011;31265;49.680;8.608;2022-07-12T12:45:22;0.25;;;0.17;;
45540;SDS011;31265;49.680;8.608;2022-07-12T12:47:52;0.20;;;0.10;;
45540;SDS011;31265;49.680;8.608;2022-07-12T12:50:41;0.45;;;0.17;;
45540;SDS011;31265;49.680;8.608;2022-07-12T12:53:15;0.50;;;0.30;;
45540;SDS011;31265;49.680;8.608;2022-07-12T12:55:46;0.15;;;0.10;;
45540;SDS011;31265;49.680;8.608;2022-07-12T12:58:15;0.30;;;0.10;;
45540;SDS011;31265;49.680;8.608;2022-07-12T13:00:45;0.25;;;0.15;;
45540;SDS011;31265;49.680;8.608;2022-07-12T13:03:15;0.22;;;0.17;;
45540;SDS011;31265;49.680;8.608;2022-07-12T13:05:45;0.57;;;0.20;;
45540;SDS011;31265;49.680;8.608;2022-07-12T13:08:15;0.32;;;0.20;;
45540;SDS011;31265;49.680;8.608;2022-07-12T13:10:44;0.38;;;0.20;;
45540;SDS011;31265;49.680;8.608;2022-07-12T13:13:13;0.30;;;0.20;;
45540;SDS011;31265;49.680;8.608;2022-07-12T13:15:45;0.22;;;0.10;;
45540;SDS011;31265;49.680;8.608;2022-07-12T13:18:13;0.40;;;0.20;;
45540;SDS011;31265;49.680;8.608;2022-07-12T13:20:42;0.43;;;0.20;;
45540;SDS011;31265;49.680;8.608;2022-07-12T13:23:10;0.53;;;0.17;;
45540;SDS011;31265;49.680;8.608;2022-07-12T13:25:40;0.32;;;0.20;;
45540;SDS011;31265;49.680;8.608;2022-07-12T13:28:08;0.40;;;0.20;;
45540;SDS011;31265;49.680;8.608;2022-07-12T13:30:37;0.22;;;0.10;;
45540;SDS011;31265;49.680;8.608;2022-07-12T13:33:05;0.65;;;0.32;;
45540;SDS011;31265;49.680;8.608;2022-07-12T13:35:33;0.50;;;0.20;;
45540;SDS011;31265;49.680;8.608;2022-07-12T13:40:30;0.30;;;0.10;;
45540;SDS011;31265;49.680;8.608;2022-07-12T13:42:59;0.43;;;0.20;;
45540;SDS011;31265;49.680;8.608;2022-07-12T13:45:27;0.25;;;0.15;;
45540;SDS011;31265;49.680;8.608;2022-07-12T13:47:56;1.25;;;0.43;;
45540;SDS011;31265;49.680;8.608;2022-07-12T13:50:24;1.13;;;0.27;;
45540;SDS011;31265;49.680;8.608;2022-07-12T13:52:58;0.10;;;0.10;;
45540;SDS011;31265;49.680;8.608;2022-07-12T13:55:27;0.35;;;0.20;;
45540;SDS011;31265;49.680;8.608;2022-07-12T13:57:57;0.13;;;0.10;;
45540;SDS011;31265;49.680;8.608;2022-07-12T14:00:27;0.22;;;0.10;;
45540;SDS011;31265;49.680;8.608;2022-07-12T14:02:55;1.03;;;0.20;;
45540;SDS011;31265;49.680;8.608;2022-07-12T14:05:24;0.32;;;0.10;;
45540;SDS011;31265;49.680;8.608;2022-07-12T14:07:52;0.30;;;0.13;;
45540;SDS011;31265;49.680;8.608;2022-07-12T14:10:21;0.30;;;0.10;;
45540;SDS011;31265;49.680;8.608;2022-07-12T14:12:49;0.32;;;0.20;;
45540;SDS011;31265;49.680;8.608;2022-07-12T14:15:19;0.17;;;0.13;;
45540;SDS011;31265;49.680;8.608;2022-07-12T14:18:03;0.35;;;0.15;;
45540;SDS011;31265;49.680;8.608;2022-07-12T14:20:33;1.35;;;0.20;;
45540;SDS011;31265;49.680;8.608;2022-07-12T14:23:03;2.83;;;0.20;;
45540;SDS011;31265;49.680;8.608;2022-07-12T14:25:32;0.52;;;0.15;;
45540;SDS011;31265;49.680;8.608;2022-07-12T14:28:01;0.57;;;0.20;;
45540;SDS011;31265;49.680;8.608;2022-07-12T14:30:30;0.17;;;0.10;;
45540;SDS011;31265;49.680;8.608;2022-07-12T14:32:58;0.10;;;0.10;;
45540;SDS011;31265;49.680;8.608;2022-07-12T14:35:27;0.10;;;0.10;;
45540;SDS011;31265;49.680;8.608;2022-07-12T14:37:56;0.28;;;0.10;;
45540;SDS011;31265;49.680;8.608;2022-07-12T14:40:24;0.30;;;0.10;;
45540;SDS011;31265;49.680;8.608;2022-07-12T14:42:52;0.85;;;0.20;;
45540;SDS011;31265;49.680;8.608;2022-07-12T14:45:23;0.10;;;0.10;;
45540;SDS011;31265;49.680;8.608;2022-07-12T14:47:53;0.20;;;0.10;;
45540;SDS011;31265;49.680;8.608;2022-07-12T14:50:21;0.10;;;0.10;;
45540;SDS011;31265;49.680;8.608;2022-07-12T14:52:49;0.10;;;0.03;;
45540;SDS011;31265;49.680;8.608;2022-07-12T14:55:18;0.40;;;0.20;;
45540;SDS011;31265;49.680;8.608;2022-07-12T14:57:46;0.10;;;0.10;;
45540;SDS011;31265;49.680;8.608;2022-07-12T15:00:14;0.50;;;0.20;;
45540;SDS011;31265;49.680;8.608;2022-07-12T15:02:42;0.37;;;0.20;;
45540;SDS011;31265;49.680;8.608;2022-07-12T15:05:18;0.38;;;0.20;;
45540;SDS011;31265;49.680;8.608;2022-07-12T15:07:46;0.22;;;0.15;;
45540;SDS011;31265;49.680;8.608;2022-07-12T15:10:14;0.00;;;0.00;;
45540;SDS011;31265;49.680;8.608;2022-07-12T15:12:43;0.68;;;0.20;;
45540;SDS011;31265;49.680;8.608;2022-07-12T15:15:11;0.47;;;0.20;;
45540;SDS011;31265;49.680;8.608;2022-07-12T15:17:39;0.20;;;0.10;;
45540;SDS011;31265;49.680;8.608;2022-07-12T15:20:08;0.55;;;0.10;;
45540;SDS011;31265;49.680;8.608;2022-07-12T15:22:37;0.17;;;0.10;;
45540;SDS011;31265;49.680;8.608;2022-07-12T15:25:05;0.13;;;0.03;;
45540;SDS011;31265;49.680;8.608;2022-07-12T15:27:34;0.25;;;0.10;;
45540;SDS011;31265;49.680;8.608;2022-07-12T15:30:02;0.83;;;0.20;;
45540;SDS011;31265;49.680;8.608;2022-07-12T15:32:31;0.82;;;0.32;;
45540;SDS011;31265;49.680;8.608;2022-07-12T15:35:03;0.38;;;0.15;;
45540;SDS011;31265;49.680;8.608;2022-07-12T15:37:32;0.52;;;0.17;;
45540;SDS011;31265;49.680;8.608;2022-07-12T15:40:01;0.20;;;0.10;;